Portada
METAR-TAF:

METAR-TAF

Aeroports :

Lleida-Alguaire

Lleida, Espanya

latitud: 41-43-40N, longitud: 000-32-09E, altitud: 350 m

Observació

L'informe es va fer fa 30 minuts, a les 16:00 UTC
Vent 2 kt del Nord-Est
Temperatura 10°C
Humitat 76%
Pressió 1023 hPa
Visibilitat 10 km o més
sense núvols per sota de 1500 mi sense presència de cumulonimbus.

METAR: LEDA 101600Z 05002KT CAVOK 10/06 Q1023

Hora: 17:30 (16:30 UTC)


TAF: manca

Observacions i pronòstics meteorològics de més de 4000 aeroports (METAR i TAF).

Les estacions disponibles són els punts grocs i vermells al mapa.

Posi el ratolí al punt desitjat per veure el nom de l'estació.

Feu clic per veure les observacions i els pronòstics meteorològics.

Per canviar el mapa: feu clic els botons verds amb una creu de color negre per apropar; al botó verd amb un guió per allunyar la imatge; o en les fletxes verdes per a mapes adjacents.


METAR-TAF: